createdAt,value
2018-04-01T00:01:36.489Z,42.87
2018-04-01T00:03:37.497Z,41.80
2018-04-01T00:05:38.373Z,42.73
2018-04-01T00:07:39.253Z,42.30
2018-04-01T00:09:40.131Z,40.53
2018-04-01T00:11:41.068Z,40.10
2018-04-01T00:13:43.008Z,39.77
2018-04-01T00:15:44.059Z,41.47
2018-04-01T00:17:45.750Z,40.37
2018-04-01T00:19:46.657Z,38.93
2018-04-01T00:21:48.304Z,37.77
2018-04-01T00:23:49.204Z,36.70
2018-04-01T00:25:50.105Z,38.10
2018-04-01T00:27:51.027Z,38.70
2018-04-01T00:29:51.968Z,34.90
2018-04-01T00:31:52.818Z,35.47
2018-04-01T00:33:53.681Z,35.50
2018-04-01T00:35:54.574Z,32.70
2018-04-01T00:37:55.479Z,32.93
2018-04-01T00:39:57.204Z,37.80
2018-04-01T00:41:58.196Z,34.70
2018-04-01T00:43:59.235Z,36.07
2018-04-01T00:46:00.293Z,37.40
2018-04-01T00:48:01.978Z,38.50
2018-04-01T00:50:02.912Z,37.23
2018-04-01T00:52:04.520Z,36.57
2018-04-01T00:54:05.396Z,36.47
2018-04-01T00:56:07.365Z,37.80
2018-04-01T00:58:09.368Z,36.17
2018-04-01T01:00:10.258Z,36.87
2018-04-01T01:02:11.134Z,38.43
2018-04-01T01:04:13.607Z,40.03
2018-04-01T01:06:15.315Z,39.83
2018-04-01T01:08:16.420Z,38.50
2018-04-01T01:10:18.150Z,39.90
2018-04-01T01:12:19.156Z,38.60
2018-04-01T01:14:20.035Z,41.77
2018-04-01T01:16:21.150Z,43.30
2018-04-01T01:18:22.028Z,46.00
2018-04-01T01:20:22.936Z,47.13
2018-04-01T01:22:24.542Z,47.57
2018-04-01T01:24:25.497Z,49.07
2018-04-01T01:26:26.692Z,49.93
2018-04-01T01:28:27.847Z,50.60
2018-04-01T01:30:28.840Z,49.93
2018-04-01T01:32:29.841Z,48.70
2018-04-01T01:34:30.855Z,47.87
2018-04-01T01:36:31.804Z,47.53
2018-04-01T01:38:33.472Z,48.33
2018-04-01T01:40:34.612Z,47.60
2018-04-01T01:42:35.460Z,46.37
2018-04-01T01:44:36.680Z,45.53
2018-04-01T01:46:37.527Z,45.20
2018-04-01T01:48:38.412Z,45.57
2018-04-01T01:50:39.285Z,42.70
2018-04-01T01:52:40.995Z,42.93
2018-04-01T01:54:41.945Z,42.07
2018-04-01T01:56:42.887Z,42.37
2018-04-01T01:58:43.759Z,42.60
2018-04-01T02:00:46.757Z,44.53
2018-04-01T02:02:47.688Z,44.00
2018-04-01T02:04:48.588Z,45.67
2018-04-01T02:06:49.450Z,46.23
2018-04-01T02:08:50.315Z,47.40
2018-04-01T02:10:51.220Z,47.30
2018-04-01T02:12:52.108Z,44.93
2018-04-01T02:14:53.779Z,47.03
2018-04-01T02:16:56.339Z,45.10
2018-04-01T02:18:57.528Z,46.57
2018-04-01T02:20:58.588Z,44.60
2018-04-01T02:22:59.680Z,47.47
2018-04-01T02:25:01.558Z,46.00
2018-04-01T02:27:02.537Z,45.27
2018-04-01T02:29:03.448Z,49.10
2018-04-01T02:31:04.316Z,48.60
2018-04-01T02:33:05.184Z,48.67
2018-04-01T02:35:06.097Z,44.93
2018-04-01T02:37:06.997Z,44.77
2018-04-01T02:39:07.950Z,45.80
2018-04-01T02:41:08.831Z,43.97
2018-04-01T02:43:11.464Z,44.47
2018-04-01T02:45:12.351Z,43.17
2018-04-01T02:47:13.207Z,42.93
2018-04-01T02:49:14.809Z,40.60
2018-04-01T02:51:15.824Z,42.67
2018-04-01T02:53:18.410Z,39.70
2018-04-01T02:55:19.297Z,42.07
2018-04-01T02:57:20.200Z,43.73
2018-04-01T02:59:21.344Z,40.23
2018-04-01T03:01:22.581Z,43.43
2018-04-01T03:03:24.296Z,42.40
2018-04-01T03:05:25.182Z,43.20
2018-04-01T03:07:26.143Z,44.67
2018-04-01T03:09:27.359Z,42.60
2018-04-01T03:11:28.498Z,42.80
2018-04-01T03:13:29.681Z,41.43
2018-04-01T03:15:30.886Z,44.00
2018-04-01T03:17:31.908Z,45.50
2018-04-01T03:19:32.905Z,41.37
2018-04-01T03:21:33.776Z,42.20
2018-04-01T03:23:34.680Z,42.30
2018-04-01T03:25:35.560Z,39.90
2018-04-01T03:27:36.409Z,34.20
2018-04-01T03:29:37.245Z,32.30
2018-04-01T03:31:38.205Z,33.37
2018-04-01T03:33:39.204Z,32.57
2018-04-01T03:35:40.084Z,35.50
2018-04-01T03:37:40.952Z,36.13
2018-04-01T03:39:42.598Z,38.27
2018-04-01T03:41:44.206Z,37.20
2018-04-01T03:43:45.162Z,39.53
2018-04-01T03:45:46.169Z,38.60
2018-04-01T03:47:48.084Z,35.60
2018-04-01T03:49:48.930Z,36.10
2018-04-01T03:51:49.803Z,36.73
2018-04-01T03:53:50.685Z,37.77
2018-04-01T03:55:51.563Z,36.60
2018-04-01T03:57:53.473Z,37.47
2018-04-01T03:59:54.415Z,36.97
2018-04-01T04:01:56.115Z,38.00
2018-04-01T04:03:57.145Z,39.73
2018-04-01T04:05:58.340Z,39.00
2018-04-01T04:07:59.293Z,37.23
2018-04-01T04:10:00.304Z,37.73
2018-04-01T04:12:01.602Z,37.27
2018-04-01T04:14:02.546Z,34.63
2018-04-01T04:16:03.443Z,33.87
2018-04-01T04:18:04.380Z,33.80
2018-04-01T04:20:05.273Z,30.37
2018-04-01T04:22:06.395Z,29.10
2018-04-01T04:24:07.288Z,27.90
2018-04-01T04:26:08.169Z,29.27
2018-04-01T04:28:09.031Z,30.13
2018-04-01T04:30:10.100Z,31.53
2018-04-01T04:32:11.125Z,25.20
2018-04-01T04:34:12.006Z,27.67
2018-04-01T04:36:12.944Z,28.37
2018-04-01T04:38:14.841Z,31.53
2018-04-01T04:40:16.562Z,28.80
2018-04-01T04:42:18.240Z,25.70
2018-04-01T04:44:19.179Z,28.20
2018-04-01T04:46:20.036Z,28.63
2018-04-01T04:48:20.942Z,30.00
2018-04-01T04:50:21.824Z,24.97
2018-04-01T04:52:22.823Z,22.40
2018-04-01T04:54:23.761Z,24.13
2018-04-01T04:56:24.687Z,23.97
2018-04-01T04:58:25.592Z,25.83
2018-04-01T05:00:27.421Z,25.40
2018-04-01T05:02:28.590Z,25.70
2018-04-01T05:04:29.656Z,25.90
2018-04-01T05:06:30.951Z,25.50
2018-04-01T05:08:32.005Z,24.00
2018-04-01T05:10:32.954Z,24.27
2018-04-01T05:12:33.817Z,24.17
2018-04-01T05:14:34.764Z,24.30
2018-04-01T05:16:35.674Z,24.57
2018-04-01T05:18:36.572Z,26.03
2018-04-01T05:20:37.443Z,23.93
2018-04-01T05:22:38.371Z,24.77
2018-04-01T05:24:39.237Z,25.60
2018-04-01T05:26:40.096Z,23.03
2018-04-01T05:28:41.688Z,23.47
2018-04-01T05:30:42.547Z,22.07
2018-04-01T05:32:43.412Z,23.93
2018-04-01T05:34:44.285Z,21.70
2018-04-01T05:36:45.970Z,21.67
2018-04-01T05:38:46.881Z,22.60
2018-04-01T05:40:48.526Z,21.97
2018-04-01T05:42:49.356Z,23.90
2018-04-01T05:44:50.221Z,22.80
2018-04-01T05:46:51.083Z,23.17
2018-04-01T05:48:52.786Z,23.13
2018-04-01T05:50:53.662Z,22.90
2018-04-01T05:52:54.515Z,21.20
2018-04-01T05:54:55.380Z,21.40
2018-04-01T05:56:56.380Z,22.50
2018-04-01T05:58:57.341Z,22.80
2018-04-01T06:00:58.286Z,21.80
2018-04-01T06:02:59.366Z,22.37
2018-04-01T06:05:00.393Z,21.10
2018-04-01T06:07:01.353Z,23.30
2018-04-01T06:09:02.343Z,22.17
2018-04-01T06:11:03.209Z,21.30
2018-04-01T06:13:04.084Z,20.90
2018-04-01T06:15:04.964Z,20.27
2018-04-01T06:17:05.836Z,19.83
2018-04-01T06:19:06.710Z,18.17
2018-04-01T06:21:07.564Z,18.10
2018-04-01T06:23:09.166Z,18.50
2018-04-01T06:25:10.033Z,18.50
2018-04-01T06:27:10.875Z,19.50
2018-04-01T06:29:11.787Z,18.60
2018-04-01T06:31:13.417Z,18.30
2018-04-01T06:33:15.018Z,16.40
2018-04-01T06:35:15.988Z,16.63
2018-04-01T06:37:16.919Z,17.90
2018-04-01T06:39:17.932Z,16.53
2018-04-01T06:41:18.809Z,15.37
2018-04-01T06:43:19.715Z,17.03
2018-04-01T06:45:20.552Z,17.40
2018-04-01T06:47:22.175Z,15.63
2018-04-01T06:49:23.061Z,15.93
2018-04-01T06:51:24.014Z,16.27
2018-04-01T06:53:24.834Z,17.33
2018-04-01T06:55:25.696Z,16.77
2018-04-01T06:57:26.809Z,15.57
2018-04-01T06:59:27.774Z,16.37
2018-04-01T07:01:29.454Z,16.97
2018-04-01T07:03:30.484Z,16.63
2018-04-01T07:05:32.174Z,16.73
2018-04-01T07:07:33.092Z,16.90
2018-04-01T07:09:33.975Z,15.87
2018-04-01T07:11:34.860Z,21.00
2018-04-01T07:13:35.799Z,30.73
2018-04-01T07:15:37.451Z,32.30
2018-04-01T07:17:38.334Z,18.93
2018-04-01T07:19:39.951Z,19.30
2018-04-01T07:21:40.813Z,18.80
2018-04-01T07:23:41.709Z,17.60
2018-04-01T07:25:42.515Z,17.33
2018-04-01T07:27:43.355Z,17.60
2018-04-01T07:29:44.270Z,17.40
2018-04-01T07:31:45.131Z,17.97
2018-04-01T07:33:45.971Z,16.47
2018-04-01T07:35:46.888Z,17.27
2018-04-01T07:37:47.693Z,16.80
2018-04-01T07:39:49.367Z,15.87
2018-04-01T07:41:50.397Z,15.60
2018-04-01T07:43:51.311Z,15.30
2018-04-01T07:45:52.295Z,15.87
2018-04-01T07:47:53.884Z,16.07
2018-04-01T07:49:54.728Z,16.20
2018-04-01T07:51:55.620Z,16.30
2018-04-01T07:53:56.478Z,16.87
2018-04-01T07:55:58.071Z,17.27
2018-04-01T07:57:58.936Z,17.77
2018-04-01T07:59:59.856Z,16.70
2018-04-01T08:02:00.849Z,17.77
2018-04-01T08:04:01.778Z,17.27
2018-04-01T08:06:02.716Z,18.67
2018-04-01T08:08:04.496Z,17.37
2018-04-01T08:10:05.407Z,16.90
2018-04-01T08:12:06.336Z,17.03
2018-04-01T08:14:07.943Z,61.83
2018-04-01T08:16:08.796Z,19.00
2018-04-01T08:18:09.703Z,19.13
2018-04-01T08:20:10.555Z,17.50
2018-04-01T08:22:11.478Z,17.30
2018-04-01T08:24:12.320Z,18.67
2018-04-01T08:26:13.187Z,17.10
2018-04-01T08:28:14.047Z,16.50
2018-04-01T08:30:14.954Z,18.03
2018-04-01T08:32:16.564Z,16.93
2018-04-01T08:34:17.460Z,17.17
2018-04-01T08:36:19.047Z,17.30
2018-04-01T08:38:19.989Z,17.13
2018-04-01T08:40:20.879Z,19.10
2018-04-01T08:42:21.861Z,18.00
2018-04-01T08:44:22.960Z,16.67
2018-04-01T08:46:23.979Z,20.03
2018-04-01T08:48:24.922Z,17.70
2018-04-01T08:50:25.880Z,19.33
2018-04-01T08:52:26.804Z,17.63
2018-04-01T08:54:27.713Z,17.20
2018-04-01T08:56:29.331Z,17.17
2018-04-01T08:58:30.210Z,17.77
2018-04-01T09:00:31.056Z,16.50
2018-04-01T09:02:31.978Z,15.77
2018-04-01T09:04:32.897Z,16.70
2018-04-01T09:06:33.751Z,17.77
2018-04-01T09:08:34.595Z,16.70
2018-04-01T09:10:35.451Z,16.43
2018-04-01T09:12:36.303Z,14.43
2018-04-01T09:14:37.158Z,15.57
2018-04-01T09:16:38.002Z,14.77
2018-04-01T09:18:38.857Z,15.30
2018-04-01T09:20:40.605Z,15.53
2018-04-01T09:22:42.320Z,15.07
2018-04-01T09:24:43.236Z,15.10
2018-04-01T09:26:44.122Z,15.77
2018-04-01T09:28:45.047Z,17.20
2018-04-01T09:30:45.893Z,17.97
2018-04-01T09:32:46.759Z,17.23
2018-04-01T09:34:47.624Z,19.30
2018-04-01T09:36:48.515Z,19.27
2018-04-01T09:38:49.409Z,16.90
2018-04-01T09:40:50.233Z,15.70
2018-04-01T09:42:51.075Z,17.10
2018-04-01T09:44:51.959Z,15.50
2018-04-01T09:46:53.684Z,16.97
2018-04-01T09:48:54.617Z,16.50
2018-04-01T09:50:55.589Z,16.23
2018-04-01T09:52:56.494Z,16.03
2018-04-01T09:54:57.356Z,15.53
2018-04-01T09:56:58.215Z,16.80
2018-04-01T09:58:59.082Z,15.30
2018-04-01T10:01:00.042Z,13.27
2018-04-01T10:03:01.753Z,14.63
2018-04-01T10:05:08.812Z,14.23
2018-04-01T10:07:09.827Z,14.63
2018-04-01T10:09:10.936Z,13.40
2018-04-01T10:11:11.901Z,13.00
2018-04-01T10:13:12.860Z,13.73
2018-04-01T10:15:13.811Z,12.83
2018-04-01T10:17:14.751Z,14.67
2018-04-01T10:19:15.691Z,13.77
2018-04-01T10:21:16.772Z,13.83
2018-04-01T10:23:18.267Z,14.60
2018-04-01T10:25:19.340Z,13.70
2018-04-01T10:27:20.394Z,14.60
2018-04-01T10:29:21.421Z,15.00
2018-04-01T10:31:22.433Z,14.60
2018-04-01T10:33:23.422Z,13.47
2018-04-01T10:35:24.372Z,14.50
2018-04-01T10:37:25.330Z,14.67
2018-04-01T10:39:26.287Z,13.63
2018-04-01T10:41:27.282Z,14.20
2018-04-01T10:43:28.239Z,13.67
2018-04-01T10:45:29.273Z,15.80
2018-04-01T10:47:30.215Z,15.17
2018-04-01T10:49:31.213Z,14.53
2018-04-01T10:51:32.108Z,14.70
2018-04-01T10:53:33.064Z,13.40
2018-04-01T10:55:33.927Z,13.37
2018-04-01T10:57:34.773Z,14.70
2018-04-01T10:59:35.684Z,13.53
2018-04-01T11:01:36.653Z,14.80
2018-04-01T11:03:37.996Z,13.00
2018-04-01T11:05:38.889Z,12.90
2018-04-01T11:07:39.735Z,13.20
2018-04-01T11:09:40.724Z,14.37
2018-04-01T11:11:41.683Z,13.90
2018-04-01T11:13:42.645Z,13.50
2018-04-01T11:15:43.607Z,15.00
2018-04-01T11:17:44.542Z,15.13
2018-04-01T11:19:45.452Z,16.10
2018-04-01T11:21:46.463Z,16.43
2018-04-01T11:23:47.448Z,16.00
2018-04-01T11:25:48.351Z,16.00
2018-04-01T11:27:49.297Z,16.83
2018-04-01T11:29:50.151Z,19.27
2018-04-01T11:31:51.052Z,16.67
2018-04-01T11:33:51.951Z,17.00
2018-04-01T11:35:53.548Z,16.20
2018-04-01T11:37:54.484Z,16.47
2018-04-01T11:39:55.352Z,15.73
2018-04-01T11:41:56.256Z,17.63
2018-04-01T11:43:57.157Z,16.90
2018-04-01T11:45:58.878Z,18.60
2018-04-01T11:47:59.840Z,17.33
2018-04-01T11:50:00.800Z,17.83
2018-04-01T11:52:01.955Z,19.27
2018-04-01T11:54:02.863Z,17.40
2018-04-01T11:56:03.720Z,17.17
2018-04-01T11:58:04.649Z,17.70
2018-04-01T12:00:05.500Z,21.43
2018-04-01T12:02:06.369Z,21.13
2018-04-01T12:04:07.208Z,21.57
2018-04-01T12:06:08.089Z,23.47
2018-04-01T12:08:08.941Z,22.87
2018-04-01T12:10:10.804Z,23.40
2018-04-01T12:12:11.947Z,23.93
2018-04-01T12:14:12.998Z,23.60
2018-04-01T12:16:14.722Z,25.10
2018-04-01T12:18:15.642Z,23.10
2018-04-01T12:20:16.610Z,24.43
2018-04-01T12:22:17.465Z,25.17
2018-04-01T12:24:18.323Z,27.63
2018-04-01T12:26:19.180Z,29.13
2018-04-01T12:28:20.045Z,27.60
2018-04-01T12:30:20.923Z,27.30
2018-04-01T12:32:21.788Z,25.40
2018-04-01T12:34:22.619Z,25.03
2018-04-01T12:36:23.486Z,25.70
2018-04-01T12:38:24.331Z,27.17
2018-04-01T12:40:25.203Z,26.80
2018-04-01T12:42:26.124Z,24.30
2018-04-01T12:44:27.048Z,24.23
2018-04-01T12:46:27.944Z,22.53
2018-04-01T12:48:28.827Z,23.97
2018-04-01T12:50:29.672Z,19.87
2018-04-01T12:52:30.761Z,22.60
2018-04-01T12:54:32.349Z,20.13
2018-04-01T12:56:33.218Z,20.47
2018-04-01T12:58:34.083Z,19.93
2018-04-01T13:00:34.942Z,18.50
2018-04-01T13:02:35.921Z,19.37
2018-04-01T13:04:36.863Z,21.00
2018-04-01T13:06:37.708Z,19.20
2018-04-01T13:08:38.608Z,20.13
2018-04-01T13:10:39.520Z,19.70
2018-04-01T13:12:40.552Z,18.20
2018-04-01T13:14:41.765Z,18.67
2018-04-01T13:16:43.511Z,17.40
2018-04-01T13:18:44.426Z,16.63
2018-04-01T13:20:45.397Z,16.37
2018-04-01T13:22:46.328Z,17.60
2018-04-01T13:24:47.242Z,17.60
2018-04-01T13:26:48.100Z,17.00
2018-04-01T13:28:48.980Z,16.13
2018-04-01T13:30:49.840Z,16.50
2018-04-01T13:32:50.681Z,14.30
2018-04-01T13:34:51.586Z,15.47
2018-04-01T13:36:52.447Z,15.93
2018-04-01T13:38:53.351Z,15.27
2018-04-01T13:40:54.200Z,14.50
2018-04-01T13:42:55.108Z,13.57
2018-04-01T13:44:55.975Z,13.70
2018-04-01T13:46:57.552Z,14.00
2018-04-01T13:48:58.495Z,15.13
2018-04-01T13:50:59.413Z,16.50
2018-04-01T13:53:01.163Z,14.50
2018-04-01T13:55:02.056Z,14.53
2018-04-01T13:57:02.907Z,15.20
2018-04-01T13:59:04.531Z,15.20
2018-04-01T14:01:05.398Z,14.20
2018-04-01T14:03:06.247Z,14.63
2018-04-01T14:05:07.137Z,14.97
2018-04-01T14:07:07.997Z,16.17
2018-04-01T14:09:09.692Z,14.77
2018-04-01T14:11:10.634Z,14.90
2018-04-01T14:13:11.680Z,14.47
2018-04-01T14:15:13.556Z,14.53
2018-04-01T14:17:14.528Z,15.00
2018-04-01T14:19:15.457Z,14.43
2018-04-01T14:21:16.419Z,13.77
2018-04-01T14:23:17.352Z,13.60
2018-04-01T14:25:18.220Z,15.60
2018-04-01T14:27:19.094Z,16.90
2018-04-01T14:29:20.761Z,15.43
2018-04-01T14:31:22.362Z,17.77
2018-04-01T14:33:23.281Z,18.23
2018-04-01T14:35:24.147Z,17.07
2018-04-01T14:37:25.000Z,17.60
2018-04-01T14:39:25.856Z,19.47
2018-04-01T14:41:26.692Z,20.53
2018-04-01T14:43:27.558Z,20.50
2018-04-01T14:45:28.447Z,18.47
2018-04-01T14:47:29.341Z,20.00
2018-04-01T14:49:30.221Z,18.40
2018-04-01T14:51:31.088Z,20.60
2018-04-01T14:53:31.940Z,18.80
2018-04-01T14:55:32.795Z,19.07
2018-04-01T14:57:33.687Z,20.13
2018-04-01T14:59:35.267Z,20.60
2018-04-01T15:01:36.881Z,19.33
2018-04-01T15:03:37.742Z,19.20
2018-04-01T15:05:39.348Z,20.53
2018-04-01T15:07:40.333Z,19.93
2018-04-01T15:09:41.357Z,18.53
2018-04-01T15:11:42.303Z,15.53
2018-04-01T15:13:43.484Z,18.73
2018-04-01T15:15:45.394Z,19.00
2018-04-01T15:17:46.376Z,19.43
2018-04-01T15:19:47.371Z,19.60
2018-04-01T15:21:48.644Z,19.17
2018-04-01T15:23:49.569Z,19.20
2018-04-01T15:25:51.198Z,17.93
2018-04-01T15:27:52.057Z,17.80
2018-04-01T15:29:53.636Z,17.63
2018-04-01T15:31:55.372Z,18.53
2018-04-01T15:33:56.265Z,16.53
2018-04-01T15:35:57.211Z,18.67
2018-04-01T15:37:58.075Z,19.03
2018-04-01T15:39:58.965Z,18.50
2018-04-01T15:42:00.737Z,19.30
2018-04-01T15:44:01.671Z,18.33
2018-04-01T15:46:02.524Z,17.43
2018-04-01T15:48:04.147Z,16.97
2018-04-01T15:50:05.001Z,18.00
2018-04-01T15:52:06.119Z,17.37
2018-04-01T15:54:06.944Z,18.77
2018-04-01T15:56:07.824Z,17.47
2018-04-01T15:58:08.795Z,19.10
2018-04-01T16:00:09.742Z,15.67
2018-04-01T16:02:11.597Z,15.73
2018-04-01T16:04:13.743Z,16.97
2018-04-01T16:06:14.713Z,16.87
2018-04-01T16:08:15.713Z,18.13
2018-04-01T16:10:16.766Z,17.73
2018-04-01T16:12:17.655Z,16.87
2018-04-01T16:14:18.621Z,17.03
2018-04-01T16:16:19.543Z,17.47
2018-04-01T16:18:20.447Z,17.60
2018-04-01T16:20:21.332Z,18.00
2018-04-01T16:22:22.204Z,18.80
2018-04-01T16:24:23.827Z,14.73
2018-04-01T16:26:25.649Z,17.43
2018-04-01T16:28:26.504Z,16.50
2018-04-01T16:30:27.397Z,17.83
2018-04-01T16:32:28.250Z,17.50
2018-04-01T16:34:29.154Z,17.33
2018-04-01T16:36:30.137Z,17.00
2018-04-01T16:38:31.969Z,17.00
2018-04-01T16:40:32.815Z,17.87
2018-04-01T16:42:33.696Z,17.53
2018-04-01T16:44:34.561Z,18.57
2018-04-01T16:46:36.493Z,18.70
2018-04-01T16:48:37.373Z,17.50
2018-04-01T16:50:39.060Z,16.50
2018-04-01T16:52:40.024Z,18.60
2018-04-01T16:54:41.104Z,19.20
2018-04-01T16:56:42.082Z,18.33
2018-04-01T16:58:43.043Z,17.97
2018-04-01T17:00:44.111Z,18.10
2018-04-01T17:02:45.236Z,18.27
2018-04-01T17:04:46.183Z,17.97
2018-04-01T17:06:47.093Z,18.37
2018-04-01T17:08:47.953Z,17.67
2018-04-01T17:10:49.556Z,18.80
2018-04-01T17:12:50.488Z,18.93
2018-04-01T17:14:51.376Z,20.13
2018-04-01T17:16:52.224Z,20.13
2018-04-01T17:18:56.162Z,19.37
2018-04-01T17:20:57.799Z,20.03
2018-04-01T17:22:58.797Z,19.60
2018-04-01T17:24:59.736Z,20.60
2018-04-01T17:27:01.267Z,21.00
2018-04-01T17:29:02.908Z,21.47
2018-04-01T17:31:03.796Z,22.17
2018-04-01T17:33:04.738Z,21.03
2018-04-01T17:35:05.514Z,22.10
2018-04-01T17:37:06.385Z,20.93
2018-04-01T17:39:07.280Z,20.23
2018-04-01T17:41:08.314Z,19.63
2018-04-01T17:43:09.327Z,22.87
2018-04-01T17:45:10.255Z,21.60
2018-04-01T17:47:11.491Z,21.07
2018-04-01T17:49:12.492Z,22.30
2018-04-01T17:51:13.496Z,22.07
2018-04-01T17:53:14.450Z,21.60
2018-04-01T17:55:15.389Z,22.13
2018-04-01T17:57:16.360Z,22.10
2018-04-01T17:59:17.256Z,22.30
2018-04-01T18:01:19.121Z,22.90
2018-04-01T18:03:20.061Z,23.40
2018-04-01T18:05:20.977Z,24.37
2018-04-01T18:07:22.582Z,24.50
2018-04-01T18:09:23.456Z,23.43
2018-04-01T18:11:24.319Z,23.77
2018-04-01T18:13:25.974Z,24.93
2018-04-01T18:15:27.563Z,26.10
2018-04-01T18:17:28.453Z,24.27
2018-04-01T18:19:29.485Z,25.80
2018-04-01T18:21:31.185Z,25.57
2018-04-01T18:23:32.812Z,23.70
2018-04-01T18:25:33.659Z,25.97
2018-04-01T18:27:34.521Z,27.17
2018-04-01T18:29:38.852Z,26.00
2018-04-01T18:31:39.790Z,25.20
2018-04-01T18:33:41.436Z,28.27
2018-04-01T18:35:43.209Z,26.47
2018-04-01T18:37:44.387Z,27.70
2018-04-01T18:39:46.132Z,27.90
2018-04-01T18:41:47.019Z,26.63
2018-04-01T18:43:47.903Z,26.90
2018-04-01T18:45:48.775Z,29.23
2018-04-01T18:47:49.779Z,28.33
2018-04-01T18:49:51.364Z,29.20
2018-04-01T18:51:52.260Z,27.20
2018-04-01T18:53:53.142Z,24.57
2018-04-01T18:55:53.991Z,23.03
2018-04-01T18:57:54.855Z,19.77
2018-04-01T18:59:55.728Z,15.20
2018-04-01T19:01:57.335Z,13.47
2018-04-01T19:03:58.219Z,13.40
2018-04-01T19:05:59.158Z,12.27
2018-04-01T19:08:00.913Z,12.57
2018-04-01T19:12:27.886Z,13.57
2018-04-01T19:14:29.801Z,12.90
2018-04-01T19:16:30.957Z,16.00
2018-04-01T19:18:32.635Z,17.70
2018-04-01T19:20:33.588Z,18.43
2018-04-01T19:22:34.543Z,22.67
2018-04-01T19:24:35.475Z,24.10
2018-04-01T19:26:36.421Z,24.30
2018-04-01T19:28:37.416Z,25.23
2018-04-01T19:30:39.102Z,33.73
2018-04-01T19:32:40.146Z,35.30
2018-04-01T19:34:41.359Z,39.40
2018-04-01T19:36:42.640Z,45.00
2018-04-01T19:38:43.730Z,46.70
2018-04-01T19:40:44.809Z,46.00
2018-04-01T19:42:45.872Z,49.10
2018-04-01T19:44:47.656Z,48.17
2018-04-01T19:46:48.673Z,44.17
2018-04-01T19:48:49.628Z,47.50
2018-04-01T19:50:50.567Z,46.87
2018-04-01T19:52:51.535Z,52.13
2018-04-01T19:54:53.211Z,49.70
2018-04-01T19:56:54.278Z,55.03
2018-04-01T19:58:55.306Z,52.00
2018-04-01T20:00:56.300Z,57.40
2018-04-01T20:02:57.315Z,55.60
2018-04-01T20:04:58.326Z,56.27
2018-04-01T20:07:00.177Z,57.70
2018-04-01T20:09:01.331Z,56.27
2018-04-01T20:11:03.095Z,54.17
2018-04-01T20:13:04.107Z,50.37
2018-04-01T20:15:05.062Z,45.03
2018-04-01T20:17:06.056Z,43.13
2018-04-01T20:19:07.747Z,42.00
2018-04-01T20:21:08.712Z,40.40
2018-04-01T20:23:09.685Z,39.00
2018-04-01T20:25:10.914Z,35.77
2018-04-01T20:27:12.122Z,35.07
2018-04-01T20:29:14.052Z,32.40
2018-04-01T20:31:15.276Z,31.13
2018-04-01T20:33:16.336Z,30.27
2018-04-01T20:35:17.448Z,31.53
2018-04-01T20:37:18.404Z,29.47
2018-04-01T20:39:19.338Z,29.70
2018-04-01T20:41:20.332Z,31.77
2018-04-01T20:43:21.330Z,28.60
2018-04-01T20:45:22.377Z,30.10
2018-04-01T20:47:23.338Z,30.00
2018-04-01T20:49:24.266Z,29.17
2018-04-01T20:51:26.007Z,29.63
2018-04-01T20:53:27.714Z,30.80
2018-04-01T20:55:28.659Z,27.83
2018-04-01T20:57:29.832Z,28.43
2018-04-01T20:59:30.860Z,27.00
2018-04-01T21:01:33.185Z,26.60
2018-04-01T21:03:34.200Z,25.20
2018-04-01T21:05:35.374Z,26.83
2018-04-01T21:07:36.320Z,28.27
2018-04-01T21:09:37.308Z,26.40
2018-04-01T21:11:38.231Z,27.33
2018-04-01T21:13:39.940Z,27.73
2018-04-01T21:15:40.986Z,27.80
2018-04-01T21:17:42.188Z,27.90
2018-04-01T21:19:43.986Z,28.03
2018-04-01T21:21:45.110Z,27.20
2018-04-01T21:23:46.889Z,27.17
2018-04-01T21:25:48.619Z,26.20
2018-04-01T21:27:49.588Z,26.10
2018-04-01T21:29:51.309Z,27.10
2018-04-01T21:31:52.369Z,26.00
2018-04-01T21:33:53.342Z,28.30
2018-04-01T21:35:54.276Z,30.50
2018-04-01T21:37:55.216Z,30.60
2018-04-01T21:39:56.156Z,31.20
2018-04-01T21:41:57.126Z,31.10
2018-04-01T21:43:58.091Z,32.27
2018-04-01T21:45:59.011Z,32.60
2018-04-01T21:48:00.858Z,35.03
2018-04-01T21:50:01.832Z,35.30
2018-04-01T21:52:03.527Z,32.10
2018-04-01T21:54:04.474Z,35.97
2018-04-01T21:56:05.414Z,36.10
2018-04-01T21:58:06.425Z,35.37
2018-04-01T22:00:07.383Z,35.60
2018-04-01T22:02:09.140Z,34.13
2018-04-01T22:04:11.121Z,33.87
2018-04-01T22:06:12.312Z,37.27
2018-04-01T22:08:13.616Z,34.10
2018-04-01T22:10:15.479Z,36.40
2018-04-01T22:12:17.260Z,32.63
2018-04-01T22:14:18.300Z,31.93
2018-04-01T22:16:20.095Z,34.30
2018-04-01T22:18:21.103Z,35.23
2018-04-01T22:20:22.182Z,31.00
2018-04-01T22:22:23.228Z,33.57
2018-04-01T22:24:24.393Z,32.57
2018-04-01T22:26:30.406Z,31.60
2018-04-01T22:28:31.463Z,33.03
2018-04-01T22:30:32.479Z,34.77
2018-04-01T22:32:33.511Z,32.77
2018-04-01T22:34:34.598Z,34.40
2018-04-01T22:36:36.246Z,33.37
2018-04-01T22:38:37.267Z,33.20
2018-04-01T22:40:39.275Z,31.53
2018-04-01T22:42:41.414Z,31.47
2018-04-01T22:44:42.641Z,32.83
2018-04-01T22:46:43.879Z,32.60
2018-04-01T22:48:45.195Z,30.50
2018-04-01T22:50:46.340Z,35.00
2018-04-01T22:52:48.849Z,33.47
2018-04-01T22:54:50.018Z,32.47
2018-04-01T22:56:51.920Z,35.13
2018-04-01T22:58:53.047Z,34.90
2018-04-01T23:00:54.084Z,33.30
2018-04-01T23:02:55.936Z,33.60
2018-04-01T23:04:57.667Z,34.90
2018-04-01T23:06:58.623Z,34.87
2018-04-01T23:08:59.637Z,34.30
2018-04-01T23:11:00.612Z,34.57
2018-04-01T23:13:01.733Z,37.67
2018-04-01T23:15:02.847Z,35.80
2018-04-01T23:17:04.606Z,35.30
2018-04-01T23:19:06.419Z,32.07
2018-04-01T23:21:07.392Z,32.30
2018-04-01T23:23:08.655Z,32.80
2018-04-01T23:25:10.637Z,34.77
2018-04-01T23:27:13.503Z,30.03
2018-04-01T23:29:14.811Z,31.87
2018-04-01T23:31:15.884Z,32.53
2018-04-01T23:33:17.040Z,29.80
2018-04-01T23:35:18.019Z,31.33
2018-04-01T23:37:19.728Z,33.83
2018-04-01T23:39:20.851Z,31.93
2018-04-01T23:41:21.946Z,33.83
2018-04-01T23:43:22.951Z,33.57
2018-04-01T23:45:23.999Z,34.80
2018-04-01T23:47:25.172Z,33.80
2018-04-01T23:49:26.209Z,34.23
2018-04-01T23:51:27.224Z,32.97
2018-04-01T23:53:28.973Z,34.60
2018-04-01T23:55:30.275Z,33.03
2018-04-01T23:57:31.338Z,34.00
2018-04-01T23:59:32.456Z,36.30
